Time;durP1;ratioP1;P1;durP2;ratioP2;P2;SDS_P1;SDS_P2;PMS_P1;PMS_P2;Temp;Humidity;BMP_temperature;BMP_pressure;BME280_temperature;BME280_humidity;BME280_pressure;Samples;Min_cycle;Max_cycle;Signal;HPM_P1;HPM_P2
2022/05/19 00:00:29;;;;;;;0.28;0.28;;;24.60;62.20;;;;;;4209611;28;20082;-67
2022/05/19 00:02:51;;;;;;;0.65;0.65;;;24.60;62.20;;;;;;4209617;28;20052;-67
2022/05/19 00:05:15;;;;;;;0.60;0.60;;;24.60;62.30;;;;;;4217355;28;20047;-67
2022/05/19 00:07:36;;;;;;;0.20;0.20;;;24.60;62.30;;;;;;4224673;28;20051;-67
2022/05/19 00:10:00;;;;;;;0.77;0.77;;;24.60;62.30;;;;;;4226611;28;20463;-67
2022/05/19 00:12:23;;;;;;;0.20;0.20;;;24.60;62.30;;;;;;4226151;28;20043;-67
2022/05/19 00:14:45;;;;;;;0.38;0.38;;;24.50;62.30;;;;;;4191786;28;20052;-67
2022/05/19 00:17:07;;;;;;;0.15;0.15;;;24.50;62.40;;;;;;4192166;28;20127;-67
2022/05/19 00:19:29;;;;;;;0.00;0.00;;;24.50;62.40;;;;;;4192737;28;20048;-67
2022/05/19 00:21:52;;;;;;;1.23;1.17;;;24.50;62.50;;;;;;4192566;28;20140;-67
2022/05/19 00:24:14;;;;;;;0.10;0.10;;;24.50;62.40;;;;;;4218834;28;20095;-67
2022/05/19 00:26:38;;;;;;;0.30;0.30;;;24.50;63.40;;;;;;4225784;28;20063;-67
2022/05/19 00:29:00;;;;;;;0.13;0.13;;;24.50;62.50;;;;;;4226329;27;20047;-68
2022/05/19 00:31:22;;;;;;;0.22;0.22;;;24.50;62.60;;;;;;4225690;28;20470;-68
2022/05/19 00:33:45;;;;;;;1.27;1.27;;;24.50;62.60;;;;;;4225872;28;20446;-68
2022/05/19 00:36:09;;;;;;;0.52;0.52;;;24.50;62.60;;;;;;4222850;28;20560;-68
2022/05/19 00:38:30;;;;;;;0.35;0.35;;;24.50;62.70;;;;;;4224468;28;20150;-68
2022/05/19 00:40:54;;;;;;;0.40;0.40;;;24.50;62.70;;;;;;4226002;28;20478;-67
2022/05/19 00:43:27;;;;;;;0.40;0.40;;;24.50;62.70;;;;;;4225873;28;20040;-67
2022/05/19 00:45:54;;;;;;;0.63;0.63;;;24.50;63.60;;;;;;4224252;28;20050;-68
2022/05/19 00:48:20;;;;;;;0.00;0.00;;;24.50;62.80;;;;;;4225713;28;20043;-67
2022/05/19 00:50:47;;;;;;;0.15;0.15;;;24.50;62.80;;;;;;4226092;28;20167;-67
2022/05/19 00:53:14;;;;;;;1.17;1.08;;;24.40;62.70;;;;;;4213429;28;20063;-67
2022/05/19 00:55:40;;;;;;;4.30;1.08;;;24.40;62.80;;;;;;4209093;28;20124;-67
2022/05/19 00:58:08;;;;;;;3.55;1.45;;;24.40;62.80;;;;;;4208683;28;20386;-68
2022/05/19 01:00:32;;;;;;;1.98;0.55;;;24.40;62.90;;;;;;4208912;28;20456;-67
2022/05/19 01:02:57;;;;;;;1.42;1.33;;;24.40;62.90;;;;;;4208365;28;20048;-67
2022/05/19 01:05:24;;;;;;;0.50;0.50;;;24.40;62.90;;;;;;4212003;28;20046;-67
2022/05/19 01:07:52;;;;;;;0.17;0.17;;;24.40;63.00;;;;;;4193483;28;20041;-67
2022/05/19 01:10:16;;;;;;;1.67;0.90;;;24.40;63.00;;;;;;4195451;28;20052;-67
2022/05/19 01:12:39;;;;;;;0.88;0.88;;;24.40;63.10;;;;;;4195600;28;20383;-67
2022/05/19 01:15:02;;;;;;;1.00;1.00;;;24.30;63.00;;;;;;4195217;28;20052;-67
2022/05/19 01:17:25;;;;;;;0.35;0.35;;;24.30;63.10;;;;;;4198022;27;20051;-67
2022/05/19 01:19:49;;;;;;;0.30;0.30;;;24.30;63.10;;;;;;4228928;27;20129;-67
2022/05/19 01:22:21;;;;;;;0.32;0.32;;;24.30;63.10;;;;;;4226625;27;20496;-67
2022/05/19 01:24:56;;;;;;;0.00;0.00;;;24.30;63.10;;;;;;4216438;28;20040;-67
2022/05/19 01:27:19;;;;;;;0.80;0.80;;;24.30;63.10;;;;;;4228522;27;20131;-68
2022/05/19 01:29:41;;;;;;;1.35;1.25;;;24.30;63.10;;;;;;4228130;27;20076;-69
2022/05/19 01:32:05;;;;;;;0.30;0.30;;;24.30;63.10;;;;;;4228527;27;20047;-68
2022/05/19 01:34:29;;;;;;;1.85;1.75;;;24.30;63.10;;;;;;4228188;27;20486;-67
2022/05/19 01:36:51;;;;;;;0.00;0.00;;;24.30;63.20;;;;;;4228471;27;20589;-68
2022/05/19 01:39:21;;;;;;;0.60;0.60;;;24.30;63.30;;;;;;4213452;28;20099;-67
2022/05/19 01:41:58;;;;;;;0.10;0.10;;;24.30;63.30;;;;;;4210509;28;20044;-67
2022/05/19 01:44:33;;;;;;;0.25;0.25;;;24.20;63.20;;;;;;4211201;28;20056;-68
2022/05/19 01:47:05;;;;;;;0.40;0.40;;;24.20;63.30;;;;;;4211362;28;20528;-68
2022/05/19 01:49:34;;;;;;;0.00;0.00;;;24.20;63.40;;;;;;4224871;27;20054;-68
2022/05/19 01:52:03;;;;;;;0.20;0.20;;;24.20;63.30;;;;;;4226778;28;20054;-68
2022/05/19 01:54:33;;;;;;;1.85;1.40;;;24.20;63.30;;;;;;4211447;28;20482;-68
2022/05/19 01:57:00;;;;;;;1.98;1.88;;;24.20;63.40;;;;;;4211631;28;20448;-68
2022/05/19 01:59:29;;;;;;;0.82;0.82;;;24.20;63.30;;;;;;4211502;28;20050;-68
2022/05/19 02:02:01;;;;;;;2.28;0.90;;;24.20;63.30;;;;;;4211708;28;20515;-67
2022/05/19 02:04:32;;;;;;;1.75;1.65;;;24.20;63.40;;;;;;4211102;28;20483;-68
2022/05/19 02:06:57;;;;;;;0.15;0.15;;;24.20;63.50;;;;;;4217256;27;20508;-68
2022/05/19 02:09:22;;;;;;;0.55;0.55;;;24.10;64.40;;;;;;4228502;27;20066;-67
2022/05/19 02:11:50;;;;;;;1.20;1.17;;;24.10;63.50;;;;;;4228223;28;21810;-68
2022/05/19 02:14:17;;;;;;;0.70;0.70;;;24.10;63.50;;;;;;4225674;28;20529;-67
2022/05/19 02:16:43;;;;;;;1.20;1.20;;;24.10;63.50;;;;;;4227948;27;20047;-67
2022/05/19 02:19:07;;;;;;;0.35;0.35;;;24.10;63.50;;;;;;4220771;27;20136;-67
2022/05/19 02:21:30;;;;;;;0.28;0.28;;;24.10;63.60;;;;;;4210891;28;20410;-67
2022/05/19 02:23:53;;;;;;;0.10;0.10;;;24.10;63.60;;;;;;4210678;28;20100;-67
2022/05/19 02:26:15;;;;;;;0.32;0.32;;;24.10;63.60;;;;;;4210612;28;20056;-69
2022/05/19 02:28:42;;;;;;;0.35;0.35;;;24.10;63.60;;;;;;4209539;28;20467;-68
2022/05/19 02:31:04;;;;;;;0.38;0.38;;;24.10;63.70;;;;;;4213659;27;20133;-68
2022/05/19 02:33:28;;;;;;;9.23;2.15;;;24.10;63.70;;;;;;4193207;28;20082;-68
2022/05/19 02:35:51;;;;;;;0.93;0.93;;;24.10;64.60;;;;;;4193784;28;20530;-68
2022/05/19 02:38:13;;;;;;;0.10;0.10;;;24.10;63.80;;;;;;4193562;28;20050;-68
2022/05/19 02:40:37;;;;;;;3.20;2.05;;;24.10;63.90;;;;;;4194334;28;20051;-67
2022/05/19 02:43:00;;;;;;;3.53;1.20;;;24.10;63.90;;;;;;4200075;28;20113;-67
2022/05/19 02:45:23;;;;;;;0.15;0.15;;;24.10;64.00;;;;;;4226243;28;20073;-68
2022/05/19 02:47:45;;;;;;;0.95;0.95;;;24.00;63.90;;;;;;4227726;27;20135;-68
2022/05/19 02:50:10;;;;;;;0.68;0.68;;;24.10;64.00;;;;;;4227204;28;20383;-67
2022/05/19 02:52:37;;;;;;;3.85;1.42;;;24.00;63.90;;;;;;4221320;27;20059;-67
2022/05/19 02:54:59;;;;;;;0.80;0.80;;;24.00;64.00;;;;;;4210835;28;20123;-67
2022/05/19 02:57:21;;;;;;;0.47;0.47;;;24.00;64.00;;;;;;4210530;28;20072;-67
2022/05/19 02:59:43;;;;;;;0.65;0.43;;;24.00;64.10;;;;;;4210393;28;20077;-67
2022/05/19 03:02:06;;;;;;;0.88;0.88;;;24.00;64.10;;;;;;4210941;28;20071;-67
2022/05/19 03:04:28;;;;;;;0.60;0.60;;;24.00;64.20;;;;;;4223906;27;20043;-67
2022/05/19 03:06:52;;;;;;;1.13;0.88;;;24.00;64.20;;;;;;4227317;27;20437;-67
2022/05/19 03:09:14;;;;;;;0.80;0.80;;;24.00;64.30;;;;;;4227127;27;20051;-67
2022/05/19 03:11:36;;;;;;;0.88;0.88;;;24.00;64.30;;;;;;4227076;27;20066;-67
2022/05/19 03:13:59;;;;;;;1.63;0.60;;;24.00;64.40;;;;;;4215859;28;20145;-67
2022/05/19 03:16:21;;;;;;;0.80;0.80;;;24.00;64.40;;;;;;4210034;28;20056;-67
2022/05/19 03:18:44;;;;;;;2.95;2.67;;;24.00;64.50;;;;;;4210324;28;20131;-67
2022/05/19 03:21:06;;;;;;;0.13;0.13;;;24.00;64.50;;;;;;4208296;28;20044;-67
2022/05/19 03:23:29;;;;;;;2.60;1.25;;;24.00;64.50;;;;;;4209940;28;20130;-67
2022/05/19 03:25:51;;;;;;;0.75;0.75;;;23.90;64.40;;;;;;4218642;28;20059;-67
2022/05/19 03:28:14;;;;;;;0.73;0.73;;;23.90;64.50;;;;;;4226976;27;20445;-67
2022/05/19 03:30:36;;;;;;;0.20;0.20;;;23.90;65.30;;;;;;4227056;27;20056;-67
2022/05/19 03:32:59;;;;;;;1.67;1.55;;;23.90;64.50;;;;;;4226652;28;20406;-67
2022/05/19 03:35:21;;;;;;;1.13;1.13;;;23.90;64.50;;;;;;4226743;28;20410;-67
2022/05/19 03:37:43;;;;;;;0.88;0.88;;;23.90;64.50;;;;;;4217446;27;20048;-67
2022/05/19 03:40:10;;;;;;;0.35;0.35;;;23.90;64.50;;;;;;4208097;28;20052;-67
2022/05/19 03:42:32;;;;;;;0.43;0.43;;;23.90;64.50;;;;;;4209231;28;20044;-68
2022/05/19 03:44:54;;;;;;;0.20;0.20;;;23.90;64.60;;;;;;4209843;28;20055;-68
2022/05/19 03:47:17;;;;;;;0.25;0.25;;;23.90;64.60;;;;;;4209944;28;20048;-68
2022/05/19 03:49:38;;;;;;;1.75;1.35;;;23.90;64.70;;;;;;4216543;28;20128;-68
2022/05/19 03:52:01;;;;;;;0.22;0.22;;;23.90;64.70;;;;;;4224476;28;20130;-67
2022/05/19 03:54:23;;;;;;;3.72;0.73;;;23.90;64.70;;;;;;4209757;28;20043;-67
2022/05/19 03:56:46;;;;;;;0.68;0.60;;;23.90;64.80;;;;;;4209576;28;20086;-67
2022/05/19 03:59:09;;;;;;;0.95;0.82;;;23.90;64.80;;;;;;4226155;28;20043;-67
2022/05/19 04:01:31;;;;;;;0.28;0.28;;;23.90;64.80;;;;;;4226475;27;20047;-67
2022/05/19 04:03:55;;;;;;;3.95;1.35;;;23.90;64.80;;;;;;4226558;27;20112;-67
2022/05/19 04:06:19;;;;;;;0.08;0.08;;;23.90;64.80;;;;;;4226271;27;20054;-67
2022/05/19 04:08:42;;;;;;;1.13;1.10;;;23.90;64.80;;;;;;4212717;27;20044;-67
2022/05/19 04:11:05;;;;;;;1.05;1.05;;;23.90;64.80;;;;;;4209662;28;20051;-67
2022/05/19 04:13:28;;;;;;;0.90;0.90;;;23.80;64.70;;;;;;4209493;28;20387;-67
2022/05/19 04:15:50;;;;;;;1.10;1.10;;;23.90;64.80;;;;;;4209332;28;20410;-67
2022/05/19 04:18:14;;;;;;;0.63;0.63;;;23.80;64.70;;;;;;4192891;28;20066;-66
2022/05/19 04:20:36;;;;;;;0.98;0.98;;;23.80;64.80;;;;;;4192466;28;20407;-67
2022/05/19 04:22:58;;;;;;;3.97;1.85;;;23.90;64.90;;;;;;4200517;28;20059;-67
2022/05/19 04:25:20;;;;;;;0.30;0.30;;;23.80;64.70;;;;;;4209388;28;20048;-67
2022/05/19 04:27:42;;;;;;;1.50;1.25;;;23.80;64.90;;;;;;4222188;28;20043;-67
2022/05/19 04:30:07;;;;;;;1.77;1.73;;;23.80;64.90;;;;;;4225914;28;20146;-67
2022/05/19 04:32:34;;;;;;;1.57;1.40;;;23.80;64.90;;;;;;4225960;27;20043;-67
2022/05/19 04:34:56;;;;;;;0.30;0.30;;;23.80;64.90;;;;;;4225861;27;20078;-67
2022/05/19 04:37:19;;;;;;;0.38;0.38;;;23.80;64.90;;;;;;4225953;28;20366;-67
2022/05/19 04:39:41;;;;;;;0.65;0.65;;;23.80;65.00;;;;;;4214828;28;20431;-67
2022/05/19 04:42:06;;;;;;;0.10;0.10;;;23.80;64.90;;;;;;4224444;28;20081;-67
2022/05/19 04:44:28;;;;;;;1.23;1.15;;;23.80;65.00;;;;;;4225716;27;20136;-67
2022/05/19 04:46:51;;;;;;;0.73;0.73;;;23.80;65.00;;;;;;4225729;28;20082;-67
2022/05/19 04:49:14;;;;;;;0.68;0.43;;;23.80;65.00;;;;;;4225684;28;20044;-67
2022/05/19 04:51:36;;;;;;;0.75;0.75;;;23.80;65.00;;;;;;4225265;28;20046;-66
2022/05/19 04:53:58;;;;;;;1.27;1.10;;;23.80;65.00;;;;;;4208724;28;20052;-66
2022/05/19 04:56:20;;;;;;;12.18;2.00;;;23.80;65.00;;;;;;4207375;28;20131;-66
2022/05/19 04:58:42;;;;;;;1.63;0.88;;;23.80;65.10;;;;;;4208618;28;20051;-67
2022/05/19 05:01:06;;;;;;;1.63;1.63;;;23.80;65.20;;;;;;4208602;28;20075;-67
2022/05/19 05:03:30;;;;;;;0.30;0.30;;;23.80;65.20;;;;;;4208722;28;20457;-67
2022/05/19 05:05:52;;;;;;;0.88;0.88;;;23.80;65.20;;;;;;4208682;28;20044;-66
2022/05/19 05:08:14;;;;;;;2.15;1.55;;;23.80;65.20;;;;;;4208673;28;20509;-67
2022/05/19 05:10:36;;;;;;;1.15;1.15;;;23.80;65.30;;;;;;4208771;28;20094;-66
2022/05/19 05:13:05;;;;;;;0.80;0.80;;;23.80;65.40;;;;;;4191875;28;20090;-67
2022/05/19 05:15:27;;;;;;;2.10;0.77;;;23.80;65.50;;;;;;4192026;28;20128;-67
2022/05/19 05:17:49;;;;;;;2.33;1.23;;;23.80;65.50;;;;;;4192173;28;20102;-67
2022/05/19 05:20:14;;;;;;;0.85;0.85;;;23.80;65.50;;;;;;4204782;28;20052;-67
2022/05/19 05:22:36;;;;;;;2.35;2.15;;;23.80;65.60;;;;;;4213425;28;20133;-67
2022/05/19 05:24:58;;;;;;;1.48;1.38;;;23.80;65.60;;;;;;4207946;28;20052;-66
2022/05/19 05:27:21;;;;;;;0.77;0.77;;;23.80;65.70;;;;;;4208339;28;20399;-66
2022/05/19 05:29:46;;;;;;;1.35;1.08;;;23.80;65.70;;;;;;4207164;28;20495;-66
2022/05/19 05:32:09;;;;;;;0.28;0.28;;;23.80;65.80;;;;;;4208330;28;20076;-67
2022/05/19 05:34:31;;;;;;;2.03;1.85;;;23.80;65.90;;;;;;4218015;28;20054;-67
2022/05/19 05:36:54;;;;;;;1.05;1.05;;;23.80;65.90;;;;;;4224946;28;20516;-66
2022/05/19 05:39:16;;;;;;;2.00;1.90;;;23.80;65.90;;;;;;4225301;28;20080;-67
2022/05/19 05:41:38;;;;;;;2.28;1.23;;;23.80;65.90;;;;;;4225117;28;20138;-67
2022/05/19 05:44:00;;;;;;;0.93;0.93;;;23.80;65.90;;;;;;4224934;28;20151;-66
2022/05/19 05:46:22;;;;;;;6.72;1.95;;;23.80;66.80;;;;;;4218000;28;20138;-68
2022/05/19 05:48:48;;;;;;;1.65;1.55;;;23.90;65.90;;;;;;4208924;28;20151;-67
2022/05/19 05:51:12;;;;;;;1.88;1.30;;;23.90;66.00;;;;;;4228438;27;20050;-67
2022/05/19 05:53:37;;;;;;;1.92;1.83;;;23.90;65.90;;;;;;4213116;28;20486;-67
2022/05/19 05:56:00;;;;;;;1.52;1.45;;;23.90;66.80;;;;;;4211513;28;20043;-68
2022/05/19 05:58:22;;;;;;;1.83;1.67;;;23.90;65.90;;;;;;4220546;28;20048;-67
2022/05/19 06:00:45;;;;;;;0.35;0.35;;;23.90;66.00;;;;;;4212477;27;20074;-68
2022/05/19 06:03:08;;;;;;;0.30;0.30;;;23.90;65.90;;;;;;4226180;27;20047;-69
2022/05/19 06:05:30;;;;;;;1.20;1.20;;;23.90;65.90;;;;;;4219550;27;20712;-63
2022/05/19 06:07:53;;;;;;;1.70;1.65;;;24.00;66.50;;;;;;4221980;27;20058;-67
2022/05/19 06:10:17;;;;;;;0.93;0.93;;;24.00;66.80;;;;;;4211277;28;20471;-67
2022/05/19 06:12:40;;;;;;;5.93;2.75;;;24.10;66.60;;;;;;4209791;28;20834;-67
2022/05/19 06:15:03;;;;;;;0.93;0.93;;;24.10;66.40;;;;;;4217579;28;20108;-67
2022/05/19 06:17:26;;;;;;;1.88;1.75;;;24.10;66.20;;;;;;4228054;27;20085;-67
2022/05/19 06:19:49;;;;;;;0.82;0.82;;;24.10;66.20;;;;;;4218201;27;20047;-67
2022/05/19 06:22:11;;;;;;;1.05;1.05;;;24.10;66.10;;;;;;4210871;28;20476;-67
2022/05/19 06:24:35;;;;;;;2.10;1.50;;;24.00;66.10;;;;;;4212464;28;20048;-68
2022/05/19 06:26:58;;;;;;;0.82;0.82;;;24.10;66.20;;;;;;4226924;27;20419;-68
2022/05/19 06:29:20;;;;;;;17.77;1.33;;;24.10;66.30;;;;;;4227648;28;20135;-69
2022/05/19 06:31:43;;;;;;;4.35;1.90;;;24.10;66.30;;;;;;4225956;27;20047;-69
2022/05/19 06:34:05;;;;;;;1.42;1.35;;;24.10;66.30;;;;;;4214675;28;20064;-69
2022/05/19 06:36:27;;;;;;;0.32;0.32;;;24.10;66.30;;;;;;4219147;27;20047;-69
2022/05/19 06:38:49;;;;;;;2.47;2.15;;;24.00;66.10;;;;;;4210908;28;20169;-69
2022/05/19 06:43:53;;;;;;;0.05;0.05;;;24.10;66.10;;;;;;4210361;28;20060;-69
2022/05/19 06:46:15;;;;;;;0.50;0.50;;;24.10;66.10;;;;;;4210846;28;20071;-69
2022/05/19 06:48:37;;;;;;;0.70;0.70;;;24.20;66.10;;;;;;4210508;28;20048;-69
2022/05/19 06:50:59;;;;;;;3.97;1.20;;;24.20;66.00;;;;;;4198346;28;20047;-67
2022/05/19 06:53:43;;;;;;;1.80;1.70;;;24.20;65.90;;;;;;4191771;28;20209;-68
2022/05/19 06:56:08;;;;;;;3.30;1.17;;;24.30;65.80;;;;;;4204692;28;20125;-68
2022/05/19 06:58:30;;;;;;;0.38;0.38;;;24.30;65.60;;;;;;4207961;28;20059;-68
2022/05/19 07:00:54;;;;;;;0.20;0.20;;;24.30;65.50;;;;;;4207763;28;20052;-68
2022/05/19 07:03:16;;;;;;;2.35;1.50;;;24.40;65.30;;;;;;4198964;28;20063;-68
2022/05/19 07:05:40;;;;;;;0.85;0.85;;;24.40;65.30;;;;;;4190343;28;20499;-68
2022/05/19 07:08:03;;;;;;;0.20;0.20;;;24.40;65.30;;;;;;4195772;28;20063;-68
2022/05/19 07:10:27;;;;;;;1.23;1.23;;;24.30;65.30;;;;;;4193919;28;20083;-68
2022/05/19 07:12:56;;;;;;;1.48;1.10;;;24.30;65.40;;;;;;4192458;27;20545;-68
2022/05/19 07:15:20;;;;;;;0.35;0.35;;;24.30;65.40;;;;;;4184686;28;20095;-68
2022/05/19 07:17:43;;;;;;;1.70;1.70;;;24.30;65.60;;;;;;4200522;28;20201;-67
2022/05/19 07:22:46;;;;;;;0.82;0.82;;;24.30;65.70;;;;;;4204067;27;20549;-68
2022/05/19 07:25:11;;;;;;;1.52;1.52;;;24.20;65.70;;;;;;4192148;28;20048;-68
2022/05/19 07:27:33;;;;;;;0.20;0.20;;;24.20;65.90;;;;;;4193053;28;20040;-68
2022/05/19 07:29:59;;;;;;;1.77;1.05;;;24.20;65.90;;;;;;4198843;28;20054;-68
2022/05/19 07:32:21;;;;;;;1.55;0.50;;;24.20;66.00;;;;;;4193485;28;20051;-68
2022/05/19 07:34:44;;;;;;;1.58;0.63;;;24.20;66.00;;;;;;4191384;28;20058;-69
2022/05/19 07:37:07;;;;;;;17.20;4.20;;;24.10;66.10;;;;;;4190981;28;20044;-68
2022/05/19 07:39:31;;;;;;;1.15;1.10;;;24.10;66.10;;;;;;4191843;28;20049;-67
2022/05/19 07:41:55;;;;;;;1.35;1.25;;;24.10;66.10;;;;;;4190793;28;20098;-68
2022/05/19 07:44:18;;;;;;;0.85;0.75;;;24.10;66.20;;;;;;4206428;28;20044;-67
2022/05/19 07:46:41;;;;;;;4.55;1.05;;;24.10;66.30;;;;;;4199737;28;20056;-67
2022/05/19 07:49:04;;;;;;;0.08;0.08;;;24.10;66.50;;;;;;4201288;28;20384;-67
2022/05/19 07:51:31;;;;;;;1.90;1.73;;;24.10;66.50;;;;;;4191447;28;20051;-68
2022/05/19 07:53:54;;;;;;;0.20;0.20;;;24.10;66.60;;;;;;4208179;27;20097;-67
2022/05/19 07:56:16;;;;;;;0.88;0.85;;;24.00;66.70;;;;;;4189288;28;20589;-68
2022/05/19 07:58:38;;;;;;;0.82;0.82;;;24.00;66.80;;;;;;4191660;28;20164;-68
2022/05/19 08:01:01;;;;;;;0.32;0.30;;;24.00;66.90;;;;;;4190144;28;20125;-68
2022/05/19 08:03:24;;;;;;;2.35;0.57;;;24.00;67.10;;;;;;4191579;28;20388;-68
2022/05/19 08:05:46;;;;;;;0.45;0.45;;;24.00;67.20;;;;;;4191891;28;20063;-67
2022/05/19 08:08:09;;;;;;;0.22;0.22;;;24.00;67.20;;;;;;4196740;28;20135;-66
2022/05/19 08:10:32;;;;;;;3.03;1.27;;;23.90;67.30;;;;;;4191901;28;20131;-64
2022/05/19 08:15:37;;;;;;;0.73;0.73;;;24.00;67.80;;;;;;4190893;28;20057;-69
2022/05/19 08:18:00;;;;;;;1.02;1.02;;;24.00;67.60;;;;;;4217787;28;20044;-69
2022/05/19 08:20:22;;;;;;;1.20;1.10;;;24.00;67.50;;;;;;4211331;28;20429;-69
2022/05/19 08:22:44;;;;;;;0.20;0.20;;;24.00;67.30;;;;;;4219366;28;20170;-69
2022/05/19 08:25:08;;;;;;;0.47;0.47;;;24.00;67.50;;;;;;4209128;28;20050;-67
2022/05/19 08:27:31;;;;;;;1.27;0.65;;;23.90;67.50;;;;;;4213006;28;20392;-67
2022/05/19 08:29:53;;;;;;;1.98;0.73;;;24.00;67.50;;;;;;4226385;27;20084;-67
2022/05/19 08:32:16;;;;;;;3.30;1.73;;;24.00;67.50;;;;;;4226138;28;20071;-68
2022/05/19 08:34:38;;;;;;;0.22;0.22;;;24.00;67.50;;;;;;4225149;28;20052;-67
2022/05/19 08:37:00;;;;;;;0.70;0.70;;;23.90;67.50;;;;;;4226140;28;20051;-67
2022/05/19 08:39:24;;;;;;;0.63;0.55;;;24.00;67.50;;;;;;4225908;28;20055;-67
2022/05/19 08:41:52;;;;;;;0.75;0.40;;;24.00;67.50;;;;;;4223144;28;20073;-67
2022/05/19 08:44:18;;;;;;;2.90;1.30;;;24.00;67.50;;;;;;4226152;28;20039;-67
2022/05/19 08:46:42;;;;;;;0.20;0.20;;;24.00;67.50;;;;;;4224852;28;20375;-68
2022/05/19 08:49:13;;;;;;;0.65;0.65;;;24.00;67.50;;;;;;4208131;28;20040;-68
2022/05/19 08:51:40;;;;;;;0.65;0.65;;;24.00;67.50;;;;;;4208646;28;20047;-67
2022/05/19 08:54:07;;;;;;;1.25;1.25;;;24.00;67.50;;;;;;4208502;28;20105;-67
2022/05/19 08:56:36;;;;;;;0.30;0.30;;;24.00;67.50;;;;;;4208899;28;20487;-67
2022/05/19 08:59:11;;;;;;;1.52;1.42;;;24.00;67.40;;;;;;4208871;28;20059;-67
2022/05/19 09:01:42;;;;;;;0.50;0.50;;;24.00;67.60;;;;;;4223490;28;20047;-68
2022/05/19 09:04:21;;;;;;;1.27;1.17;;;24.00;67.70;;;;;;4214642;28;20126;-68
2022/05/19 09:09:42;;;;;;;;;;;24.00;67.70;;;;;;4208986;28;20048;-67
2022/05/19 09:12:10;;;;;;;0.38;0.38;;;24.00;67.70;;;;;;4224664;28;19924;-67
2022/05/19 09:14:33;;;;;;;1.80;1.00;;;24.00;67.70;;;;;;4225294;28;20479;-67
2022/05/19 09:17:01;;;;;;;7.72;2.72;;;24.00;67.70;;;;;;4205642;28;20063;-67
2022/05/19 09:19:30;;;;;;;0.00;0.00;;;24.00;68.50;;;;;;4209827;28;20047;-67
2022/05/19 09:22:03;;;;;;;0.08;0.08;;;24.00;68.60;;;;;;4212366;28;20050;-67
2022/05/19 09:24:25;;;;;;;0.47;0.47;;;24.00;67.70;;;;;;4193874;28;20056;-67
2022/05/19 09:26:52;;;;;;;0.28;0.28;;;24.10;67.70;;;;;;4195187;28;20055;-67
2022/05/19 09:29:18;;;;;;;0.17;0.17;;;24.00;67.60;;;;;;4194552;28;20078;-67
2022/05/19 09:31:46;;;;;;;0.65;0.65;;;24.10;67.60;;;;;;4195204;28;20093;-68
2022/05/19 09:34:10;;;;;;;4.78;0.98;;;24.10;67.50;;;;;;4195413;28;21411;-67
2022/05/19 09:36:38;;;;;;;1.65;0.75;;;24.10;67.40;;;;;;4202509;28;20056;-66
2022/05/19 09:39:03;;;;;;;0.75;0.75;;;24.20;67.40;;;;;;4211418;28;20050;-67
2022/05/19 09:41:30;;;;;;;0.20;0.20;;;24.20;67.20;;;;;;4212002;28;20047;-66
2022/05/19 09:43:55;;;;;;;4.05;2.05;;;24.30;67.10;;;;;;4210970;28;20051;-67
2022/05/19 09:46:17;;;;;;;0.85;0.77;;;24.30;67.80;;;;;;4210276;28;20044;-67
2022/05/19 09:48:46;;;;;;;0.00;0.00;;;24.30;66.80;;;;;;4212060;28;20059;-67
2022/05/19 09:51:11;;;;;;;0.17;0.17;;;24.30;66.70;;;;;;4212556;28;20044;-68
2022/05/19 09:53:39;;;;;;;1.38;1.27;;;24.40;66.80;;;;;;4206126;28;20114;-68
2022/05/19 09:56:04;;;;;;;0.15;0.15;;;24.40;66.70;;;;;;4206046;28;20060;-68
2022/05/19 09:58:31;;;;;;;0.63;0.63;;;24.50;66.60;;;;;;4206607;28;20102;-68
2022/05/19 10:00:54;;;;;;;0.25;0.25;;;24.50;66.30;;;;;;4192825;28;20048;-68
2022/05/19 10:03:29;;;;;;;0.25;0.25;;;24.50;66.30;;;;;;4192651;28;20171;-68
2022/05/19 10:05:56;;;;;;;0.15;0.15;;;24.50;66.10;;;;;;4192602;28;20102;-69
2022/05/19 10:08:21;;;;;;;0.65;0.65;;;24.60;66.00;;;;;;4190507;28;20174;-68
2022/05/19 10:10:55;;;;;;;1.98;1.88;;;24.60;65.80;;;;;;4192475;28;20056;-68
2022/05/19 10:13:17;;;;;;;5.38;4.90;;;24.60;65.70;;;;;;4192480;28;20036;-67
2022/05/19 10:15:53;;;;;;;9.65;5.45;;;24.70;65.60;;;;;;4198830;28;20043;-67
2022/05/19 10:18:23;;;;;;;8.95;8.35;;;24.70;65.70;;;;;;4192114;28;20075;-67
2022/05/19 10:20:52;;;;;;;8.18;5.57;;;24.70;65.60;;;;;;4204107;28;20048;-67
2022/05/19 10:23:34;;;;;;;12.52;6.53;;;24.70;65.60;;;;;;4194871;28;20492;-68
2022/05/19 10:26:10;;;;;;;11.98;7.97;;;24.70;65.60;;;;;;4202546;28;20586;-68
2022/05/19 10:31:39;;;;;;;30.95;7.95;;;24.80;65.50;;;;;;4199783;28;21197;-67
2022/05/19 10:34:25;;;;;;;5.70;5.40;;;24.80;66.30;;;;;;4205434;28;20406;-68
2022/05/19 10:36:54;;;;;;;5.10;4.82;;;24.90;65.40;;;;;;4199495;28;20059;-67
2022/05/19 10:39:44;;;;;;;5.03;4.72;;;24.90;65.30;;;;;;4205427;28;20040;-68
2022/05/19 10:42:14;;;;;;;23.65;6.32;;;24.90;65.10;;;;;;4200094;28;20067;-67
2022/05/19 10:45:24;;;;;;;1.83;1.83;;;25.00;65.00;;;;;;4206919;28;20044;-68
2022/05/19 10:48:20;;;;;;;5.20;4.88;;;25.00;64.80;;;;;;4184185;28;20055;-69
2022/05/19 10:50:47;;;;;;;9.45;5.15;;;25.10;64.60;;;;;;4192003;28;20063;-68
2022/05/19 10:53:33;;;;;;;10.32;5.10;;;25.10;64.40;;;;;;4197481;28;20438;-68
2022/05/19 10:56:13;;;;;;;8.73;5.60;;;25.20;64.30;;;;;;4206764;28;20479;-67
2022/05/19 10:59:05;;;;;;;3.65;3.38;;;25.20;64.10;;;;;;4201682;28;20047;-66
2022/05/19 11:01:38;;;;;;;4.35;4.05;;;25.20;63.90;;;;;;4201811;28;20052;-67
2022/05/19 11:04:14;;;;;;;7.57;3.95;;;25.30;63.80;;;;;;4190853;28;20060;-66
2022/05/19 11:06:54;;;;;;;9.05;4.93;;;25.30;63.70;;;;;;4193162;28;20056;-67
2022/05/19 11:09:26;;;;;;;28.63;4.53;;;25.30;63.60;;;;;;4205860;28;20113;-67
2022/05/19 11:12:03;;;;;;;1.30;1.30;;;25.30;63.50;;;;;;4205779;28;20052;-67
2022/05/19 11:14:44;;;;;;;1.95;1.90;;;25.30;63.40;;;;;;4206291;28;20506;-67
2022/05/19 11:17:26;;;;;;;5.65;4.97;;;25.40;63.40;;;;;;4205369;28;20150;-67
2022/05/19 11:19:56;;;;;;;15.88;4.47;;;25.40;63.30;;;;;;4205594;28;20125;-67
2022/05/19 11:22:23;;;;;;;12.68;6.38;;;25.40;63.20;;;;;;4193850;28;20044;-67
2022/05/19 11:27:38;;;;;;;4.70;2.65;;;25.50;63.20;;;;;;4197076;28;20051;-68
2022/05/19 11:30:07;;;;;;;1.13;1.13;;;25.50;63.10;;;;;;4198921;28;20129;-68
2022/05/19 11:32:34;;;;;;;22.40;5.07;;;25.50;63.10;;;;;;4196914;28;20059;-69
2022/05/19 11:35:04;;;;;;;0.45;0.45;;;25.50;63.00;;;;;;4190422;28;20074;-68
2022/05/19 11:37:33;;;;;;;2.20;1.55;;;25.60;63.10;;;;;;4190330;28;20044;-68
2022/05/19 11:40:06;;;;;;;3.42;2.92;;;25.60;63.10;;;;;;4191684;28;20044;-67
2022/05/19 11:42:39;;;;;;;2.70;2.60;;;25.60;63.00;;;;;;4193244;28;20415;-68
2022/05/19 11:45:06;;;;;;;1.25;1.25;;;25.60;63.00;;;;;;4191863;28;20182;-67
2022/05/19 11:55:47;;;;;;;3.88;3.53;;;25.70;62.90;;;;;;4198654;28;20472;-67
2022/05/19 11:58:20;;;;;;;2.38;1.58;;;25.70;62.90;;;;;;4197066;28;20074;-67
2022/05/19 12:00:55;;;;;;;1.10;1.10;;;25.70;63.00;;;;;;4190028;28;20383;-67
2022/05/19 12:03:22;;;;;;;2.17;1.40;;;25.70;62.90;;;;;;4205780;28;20097;-67
2022/05/19 12:05:56;;;;;;;0.73;0.73;;;25.70;63.00;;;;;;4190039;28;20048;-68
2022/05/19 12:08:23;;;;;;;2.20;2.10;;;25.70;63.00;;;;;;4188977;28;20395;-67
2022/05/19 12:10:50;;;;;;;10.20;5.80;;;25.80;63.10;;;;;;4188756;28;20101;-67
2022/05/19 12:13:13;;;;;;;0.52;0.52;;;25.80;63.10;;;;;;4193426;28;20052;-68
2022/05/19 12:15:40;;;;;;;2.90;2.80;;;25.80;63.00;;;;;;4189805;28;20133;-68
2022/05/19 12:18:11;;;;;;;1.13;1.13;;;25.80;63.00;;;;;;4190122;28;20052;-68
2022/05/19 12:20:51;;;;;;;0.47;0.47;;;25.80;63.00;;;;;;4190219;28;20522;-68
2022/05/19 12:23:20;;;;;;;0.63;0.63;;;25.90;63.00;;;;;;4197742;28;20055;-68
2022/05/19 12:25:46;;;;;;;5.38;4.68;;;25.80;62.90;;;;;;4194228;28;20056;-68
2022/05/19 12:28:30;;;;;;;2.60;1.67;;;25.90;62.90;;;;;;4196511;28;20059;-67
2022/05/19 12:33:36;;;;;;;0.77;0.77;;;25.90;62.80;;;;;;4190751;28;20049;-67
2022/05/19 12:36:02;;;;;;;3.08;2.70;;;25.90;62.70;;;;;;4206027;28;20044;-67
2022/05/19 12:38:30;;;;;;;1.48;1.38;;;25.90;62.70;;;;;;4198771;28;20052;-68
2022/05/19 12:40:54;;;;;;;4.10;1.42;;;25.90;62.70;;;;;;4190439;28;20340;-68
2022/05/19 12:43:36;;;;;;;0.85;0.85;;;25.90;62.60;;;;;;4202593;28;20510;-69
2022/05/19 12:46:02;;;;;;;0.40;0.40;;;25.90;62.60;;;;;;4189554;28;20048;-69
2022/05/19 12:48:45;;;;;;;0.40;0.40;;;25.90;62.50;;;;;;4196501;28;20044;-69
2022/05/19 12:51:18;;;;;;;0.40;0.40;;;25.90;62.50;;;;;;4206132;28;20040;-68
2022/05/19 12:53:44;;;;;;;2.03;1.85;;;25.90;62.50;;;;;;4188522;28;20040;-68
2022/05/19 12:56:06;;;;;;;1.08;1.08;;;25.90;62.50;;;;;;4193620;28;20048;-68
2022/05/19 12:58:59;;;;;;;14.90;1.85;;;25.90;62.50;;;;;;4194979;28;20111;-68
2022/05/19 13:01:26;;;;;;;4.10;1.45;;;25.90;62.50;;;;;;4197571;28;20160;-68
2022/05/19 13:03:52;;;;;;;1.83;1.67;;;25.90;62.60;;;;;;4206193;28;20109;-67
2022/05/19 13:06:15;;;;;;;3.25;1.52;;;25.80;62.60;;;;;;4198295;28;20053;-67